sensor_id;sensor_type;location;lat;lon;timestamp;pressure;altitude;pressure_sealevel;temperature;humidity
13952;BME280;39535;52.192;9.886;2024-03-22T00:01:42;101160.88;;;10.31;83.52
13952;BME280;39535;52.192;9.886;2024-03-22T00:04:10;101160.00;;;10.33;83.42
13952;BME280;39535;52.192;9.886;2024-03-22T00:06:35;101156.44;;;10.45;83.68
13952;BME280;39535;52.192;9.886;2024-03-22T00:09:02;101152.97;;;10.43;83.41
13952;BME280;39535;52.192;9.886;2024-03-22T00:11:27;101160.00;;;10.26;83.53
13952;BME280;39535;52.192;9.886;2024-03-22T00:13:53;101151.16;;;10.51;83.45
13952;BME280;39535;52.192;9.886;2024-03-22T00:16:19;101148.56;;;10.51;84.13
13952;BME280;39535;52.192;9.886;2024-03-22T00:18:45;101133.00;;;10.38;84.60
13952;BME280;39535;52.192;9.886;2024-03-22T00:21:12;101130.25;;;10.56;84.99
13952;BME280;39535;52.192;9.886;2024-03-22T00:23:38;101103.28;;;10.59;85.56
13952;BME280;39535;52.192;9.886;2024-03-22T00:26:04;101104.91;;;10.69;85.04
13952;BME280;39535;52.192;9.886;2024-03-22T00:28:30;101107.53;;;10.67;85.30
13952;BME280;39535;52.192;9.886;2024-03-22T00:30:55;101099.66;;;10.72;84.93
13952;BME280;39535;52.192;9.886;2024-03-22T00:33:22;101126.91;;;10.37;84.83
13952;BME280;39535;52.192;9.886;2024-03-22T00:35:47;101106.78;;;10.55;84.77
13952;BME280;39535;52.192;9.886;2024-03-22T00:38:15;101102.31;;;10.66;84.56
13952;BME280;39535;52.192;9.886;2024-03-22T00:40:40;101111.03;;;10.66;84.57
13952;BME280;39535;52.192;9.886;2024-03-22T00:43:07;101112.75;;;10.67;84.39
13952;BME280;39535;52.192;9.886;2024-03-22T00:45:32;101103.22;;;10.66;84.73
13952;BME280;39535;52.192;9.886;2024-03-22T00:47:58;101103.09;;;10.79;84.74
13952;BME280;39535;52.192;9.886;2024-03-22T00:50:24;101109.97;;;10.86;84.05
13952;BME280;39535;52.192;9.886;2024-03-22T00:52:50;101106.75;;;10.59;84.91
13952;BME280;39535;52.192;9.886;2024-03-22T00:55:18;101096.31;;;10.56;84.91
13952;BME280;39535;52.192;9.886;2024-03-22T00:57:44;101077.91;;;10.71;85.04
13952;BME280;39535;52.192;9.886;2024-03-22T01:00:10;101076.97;;;10.79;84.83
13952;BME280;39535;52.192;9.886;2024-03-22T01:02:38;101069.09;;;10.83;84.83
13952;BME280;39535;52.192;9.886;2024-03-22T01:05:04;101071.91;;;10.62;84.98
13952;BME280;39535;52.192;9.886;2024-03-22T01:07:30;101070.91;;;10.73;84.98
13952;BME280;39535;52.192;9.886;2024-03-22T01:09:55;101077.00;;;10.74;84.81
13952;BME280;39535;52.192;9.886;2024-03-22T01:12:23;101069.16;;;10.77;84.51
13952;BME280;39535;52.192;9.886;2024-03-22T01:14:49;101066.53;;;10.80;85.13
13952;BME280;39535;52.192;9.886;2024-03-22T01:17:15;101061.69;;;10.36;86.03
13952;BME280;39535;52.192;9.886;2024-03-22T01:19:40;101045.78;;;10.62;85.63
13952;BME280;39535;52.192;9.886;2024-03-22T01:22:07;101032.59;;;10.74;85.63
13952;BME280;39535;52.192;9.886;2024-03-22T01:24:32;101038.72;;;10.75;85.21
13952;BME280;39535;52.192;9.886;2024-03-22T01:26:59;101043.91;;;10.78;84.97
13952;BME280;39535;52.192;9.886;2024-03-22T01:29:25;101049.88;;;10.87;84.41
13952;BME280;39535;52.192;9.886;2024-03-22T01:31:52;101050.72;;;10.92;85.26
13952;BME280;39535;52.192;9.886;2024-03-22T01:34:18;101045.59;;;10.83;85.39
13952;BME280;39535;52.192;9.886;2024-03-22T01:36:44;101048.19;;;10.83;85.03
13952;BME280;39535;52.192;9.886;2024-03-22T01:39:10;101054.22;;;10.90;84.28
13952;BME280;39535;52.192;9.886;2024-03-22T01:41:39;101056.09;;;10.79;84.63
13952;BME280;39535;52.192;9.886;2024-03-22T01:44:04;101051.72;;;10.76;85.03
13952;BME280;39535;52.192;9.886;2024-03-22T01:46:32;101037.81;;;10.74;84.91
13952;BME280;39535;52.192;9.886;2024-03-22T01:48:58;101041.13;;;10.93;85.40
13952;BME280;39535;52.192;9.886;2024-03-22T01:51:25;101039.66;;;10.67;85.20
13952;BME280;39535;52.192;9.886;2024-03-22T01:53:51;101033.31;;;10.90;85.06
13952;BME280;39535;52.192;9.886;2024-03-22T01:56:19;101015.03;;;10.91;85.80
13952;BME280;39535;52.192;9.886;2024-03-22T01:58:45;101017.53;;;11.01;85.15
13952;BME280;39535;52.192;9.886;2024-03-22T02:01:12;101017.53;;;11.01;84.67
13952;BME280;39535;52.192;9.886;2024-03-22T02:03:38;101026.16;;;11.06;83.90
13952;BME280;39535;52.192;9.886;2024-03-22T02:06:05;101022.69;;;11.05;84.30
13952;BME280;39535;52.192;9.886;2024-03-22T02:08:30;101020.25;;;10.91;84.57
13952;BME280;39535;52.192;9.886;2024-03-22T02:10:57;101007.47;;;10.64;85.53
13952;BME280;39535;52.192;9.886;2024-03-22T02:13:22;100997.63;;;10.90;85.21
13952;BME280;39535;52.192;9.886;2024-03-22T02:15:48;100989.97;;;10.77;85.05
13952;BME280;39535;52.192;9.886;2024-03-22T02:18:14;100984.53;;;10.93;85.23
13952;BME280;39535;52.192;9.886;2024-03-22T02:20:41;100984.50;;;10.98;84.80
13952;BME280;39535;52.192;9.886;2024-03-22T02:23:08;100984.59;;;10.89;84.85
13952;BME280;39535;52.192;9.886;2024-03-22T02:25:34;100977.63;;;10.88;84.48
13952;BME280;39535;52.192;9.886;2024-03-22T02:28:01;100980.91;;;11.04;84.25
13952;BME280;39535;52.192;9.886;2024-03-22T02:30:26;100987.97;;;10.97;84.24
13952;BME280;39535;52.192;9.886;2024-03-22T02:32:53;100985.28;;;11.03;84.10
13952;BME280;39535;52.192;9.886;2024-03-22T02:35:18;100998.31;;;11.06;83.78
13952;BME280;39535;52.192;9.886;2024-03-22T02:37:44;100993.94;;;11.10;83.80
13952;BME280;39535;52.192;9.886;2024-03-22T02:40:11;100999.94;;;11.15;83.89
13952;BME280;39535;52.192;9.886;2024-03-22T02:42:39;100981.03;;;10.96;84.04
13952;BME280;39535;52.192;9.886;2024-03-22T02:45:05;100966.06;;;11.07;83.95
13952;BME280;39535;52.192;9.886;2024-03-22T02:47:31;100969.50;;;11.12;83.33
13952;BME280;39535;52.192;9.886;2024-03-22T02:49:57;100973.75;;;11.21;83.00
13952;BME280;39535;52.192;9.886;2024-03-22T02:52:23;100969.50;;;11.14;83.32
13952;BME280;39535;52.192;9.886;2024-03-22T02:54:49;100967.72;;;11.15;83.66
13952;BME280;39535;52.192;9.886;2024-03-22T02:57:15;100941.13;;;10.82;83.94
13952;BME280;39535;52.192;9.886;2024-03-22T02:59:42;100927.88;;;10.99;84.02
13952;BME280;39535;52.192;9.886;2024-03-22T03:02:07;100918.63;;;10.73;84.76
13952;BME280;39535;52.192;9.886;2024-03-22T03:04:34;100931.50;;;10.88;83.90
13952;BME280;39535;52.192;9.886;2024-03-22T03:06:59;100936.63;;;10.96;83.67
13952;BME280;39535;52.192;9.886;2024-03-22T03:09:26;100955.78;;;10.97;83.83
13952;BME280;39535;52.192;9.886;2024-03-22T03:11:51;100947.03;;;10.99;83.76
13952;BME280;39535;52.192;9.886;2024-03-22T03:14:17;100966.13;;;11.03;83.04
13952;BME280;39535;52.192;9.886;2024-03-22T03:16:44;100974.03;;;10.98;82.74
13952;BME280;39535;52.192;9.886;2024-03-22T03:19:10;100985.19;;;11.11;82.62
13952;BME280;39535;52.192;9.886;2024-03-22T03:21:36;100993.13;;;11.02;82.46
13952;BME280;39535;52.192;9.886;2024-03-22T03:24:02;100984.25;;;11.15;82.50
13952;BME280;39535;52.192;9.886;2024-03-22T03:26:27;100984.16;;;11.26;82.21
13952;BME280;39535;52.192;9.886;2024-03-22T03:28:54;100996.50;;;11.11;82.37
13952;BME280;39535;52.192;9.886;2024-03-22T03:31:21;100978.09;;;11.21;82.57
13952;BME280;39535;52.192;9.886;2024-03-22T03:33:48;100972.88;;;11.22;82.50
13952;BME280;39535;52.192;9.886;2024-03-22T03:36:14;100969.25;;;11.32;81.88
13952;BME280;39535;52.192;9.886;2024-03-22T03:38:40;100977.19;;;11.23;81.98
13952;BME280;39535;52.192;9.886;2024-03-22T03:41:06;100971.34;;;11.04;82.17
13952;BME280;39535;52.192;9.886;2024-03-22T03:43:33;100948.78;;;10.99;82.61
13952;BME280;39535;52.192;9.886;2024-03-22T03:45:58;100936.56;;;10.99;82.91
13952;BME280;39535;52.192;9.886;2024-03-22T03:48:25;100918.94;;;11.15;82.38
13952;BME280;39535;52.192;9.886;2024-03-22T03:50:53;100912.81;;;11.18;82.27
13952;BME280;39535;52.192;9.886;2024-03-22T03:53:20;100914.56;;;11.16;82.49
13952;BME280;39535;52.192;9.886;2024-03-22T03:55:45;100933.09;;;11.00;82.29
13952;BME280;39535;52.192;9.886;2024-03-22T03:58:12;100919.22;;;10.93;82.81
13952;BME280;39535;52.192;9.886;2024-03-22T04:00:37;100908.84;;;10.90;82.99
13952;BME280;39535;52.192;9.886;2024-03-22T04:03:04;100904.34;;;11.00;82.82
13952;BME280;39535;52.192;9.886;2024-03-22T04:05:29;100902.63;;;10.99;82.81
13952;BME280;39535;52.192;9.886;2024-03-22T04:07:57;100888.69;;;11.00;83.33
13952;BME280;39535;52.192;9.886;2024-03-22T04:10:22;100882.53;;;11.04;83.01
13952;BME280;39535;52.192;9.886;2024-03-22T04:12:48;100898.50;;;10.78;82.83
13952;BME280;39535;52.192;9.886;2024-03-22T04:15:14;100875.75;;;10.89;83.68
13952;BME280;39535;52.192;9.886;2024-03-22T04:17:40;100844.50;;;10.82;84.47
13952;BME280;39535;52.192;9.886;2024-03-22T04:20:06;100836.66;;;10.83;83.83
13952;BME280;39535;52.192;9.886;2024-03-22T04:22:33;100854.13;;;10.78;83.26
13952;BME280;39535;52.192;9.886;2024-03-22T04:25:00;100855.00;;;10.79;83.47
13952;BME280;39535;52.192;9.886;2024-03-22T04:27:26;100856.69;;;10.83;84.01
13952;BME280;39535;52.192;9.886;2024-03-22T04:29:52;100839.34;;;10.80;84.00
13952;BME280;39535;52.192;9.886;2024-03-22T04:32:18;100834.03;;;10.86;84.05
13952;BME280;39535;52.192;9.886;2024-03-22T04:34:44;100826.06;;;10.94;83.85
13952;BME280;39535;52.192;9.886;2024-03-22T04:37:10;100798.38;;;10.82;84.63
13952;BME280;39535;52.192;9.886;2024-03-22T04:39:37;100797.47;;;10.86;84.31
13952;BME280;39535;52.192;9.886;2024-03-22T04:42:05;100800.16;;;10.80;84.15
13952;BME280;39535;52.192;9.886;2024-03-22T04:44:32;100806.34;;;10.71;84.06
13952;BME280;39535;52.192;9.886;2024-03-22T04:46:58;100785.19;;;10.91;84.27
13952;BME280;39535;52.192;9.886;2024-03-22T04:49:25;100792.19;;;10.88;84.29
13952;BME280;39535;52.192;9.886;2024-03-22T04:51:50;100789.44;;;10.99;83.61
13952;BME280;39535;52.192;9.886;2024-03-22T04:54:16;100790.31;;;10.98;83.53
13952;BME280;39535;52.192;9.886;2024-03-22T04:56:42;100791.94;;;11.06;83.30
13952;BME280;39535;52.192;9.886;2024-03-22T04:59:09;100819.09;;;10.95;83.19
13952;BME280;39535;52.192;9.886;2024-03-22T05:01:35;100799.91;;;10.96;83.51
13952;BME280;39535;52.192;9.886;2024-03-22T05:04:01;100797.41;;;10.89;83.99
13952;BME280;39535;52.192;9.886;2024-03-22T05:06:26;100791.13;;;11.01;83.82
13952;BME280;39535;52.192;9.886;2024-03-22T05:08:53;100780.66;;;11.03;83.62
13952;BME280;39535;52.192;9.886;2024-03-22T05:11:18;100780.53;;;11.12;83.14
13952;BME280;39535;52.192;9.886;2024-03-22T05:13:44;100794.59;;;11.03;83.29
13952;BME280;39535;52.192;9.886;2024-03-22T05:16:13;100782.47;;;10.98;84.06
13952;BME280;39535;52.192;9.886;2024-03-22T05:18:39;100767.50;;;11.09;83.93
13952;BME280;39535;52.192;9.886;2024-03-22T05:21:05;100775.44;;;11.03;84.02
13952;BME280;39535;52.192;9.886;2024-03-22T05:23:31;100757.97;;;11.06;83.93
13952;BME280;39535;52.192;9.886;2024-03-22T05:25:57;100758.78;;;11.10;84.27
13952;BME280;39535;52.192;9.886;2024-03-22T05:28:24;100743.16;;;11.05;85.28
13952;BME280;39535;52.192;9.886;2024-03-22T05:30:50;100741.25;;;11.17;84.59
13952;BME280;39535;52.192;9.886;2024-03-22T05:33:17;100737.00;;;11.11;84.98
13952;BME280;39535;52.192;9.886;2024-03-22T05:35:43;100736.13;;;11.12;85.10
13952;BME280;39535;52.192;9.886;2024-03-22T05:38:09;100730.94;;;11.09;85.43
13952;BME280;39535;52.192;9.886;2024-03-22T05:40:36;100715.28;;;11.07;85.47
13952;BME280;39535;52.192;9.886;2024-03-22T05:43:03;100722.81;;;11.26;85.00
13952;BME280;39535;52.192;9.886;2024-03-22T05:45:29;100731.44;;;11.29;85.13
13952;BME280;39535;52.192;9.886;2024-03-22T05:47:55;100722.38;;;10.99;85.32
13952;BME280;39535;52.192;9.886;2024-03-22T05:50:22;100708.13;;;11.19;85.78
13952;BME280;39535;52.192;9.886;2024-03-22T05:52:49;100703.66;;;11.25;85.43
13952;BME280;39535;52.192;9.886;2024-03-22T05:55:14;100713.13;;;11.32;84.72
13952;BME280;39535;52.192;9.886;2024-03-22T05:57:40;100718.47;;;11.25;85.27
13952;BME280;39535;52.192;9.886;2024-03-22T06:00:07;100703.53;;;11.31;85.24
13952;BME280;39535;52.192;9.886;2024-03-22T06:02:33;100684.38;;;11.32;85.55
13952;BME280;39535;52.192;9.886;2024-03-22T06:04:59;100696.72;;;11.23;85.24
13952;BME280;39535;52.192;9.886;2024-03-22T06:07:27;100688.84;;;11.26;85.60
13952;BME280;39535;52.192;9.886;2024-03-22T06:09:52;100685.50;;;11.18;85.72
13952;BME280;39535;52.192;9.886;2024-03-22T06:12:18;100674.91;;;11.25;85.83
13952;BME280;39535;52.192;9.886;2024-03-22T06:14:44;100667.06;;;11.25;85.65
13952;BME280;39535;52.192;9.886;2024-03-22T06:17:11;100661.78;;;11.28;86.10
13952;BME280;39535;52.192;9.886;2024-03-22T06:19:37;100652.19;;;11.29;86.50
13952;BME280;39535;52.192;9.886;2024-03-22T06:22:04;100653.88;;;11.31;86.17
13952;BME280;39535;52.192;9.886;2024-03-22T06:24:31;100681.06;;;11.23;85.73
13952;BME280;39535;52.192;9.886;2024-03-22T06:26:58;100663.56;;;11.28;85.69
13952;BME280;39535;52.192;9.886;2024-03-22T06:29:23;100662.47;;;11.40;86.00
13952;BME280;39535;52.192;9.886;2024-03-22T06:31:50;100673.88;;;11.34;84.90
13952;BME280;39535;52.192;9.886;2024-03-22T06:34:15;100666.13;;;11.29;85.43
13952;BME280;39535;52.192;9.886;2024-03-22T06:36:42;100665.00;;;11.43;85.32
13952;BME280;39535;52.192;9.886;2024-03-22T06:39:08;100672.13;;;11.35;86.33
13952;BME280;39535;52.192;9.886;2024-03-22T06:41:36;100653.97;;;11.27;86.94
13952;BME280;39535;52.192;9.886;2024-03-22T06:44:02;100660.13;;;11.24;86.49
13952;BME280;39535;52.192;9.886;2024-03-22T06:46:29;100633.91;;;11.29;86.55
13952;BME280;39535;52.192;9.886;2024-03-22T06:48:54;100610.13;;;11.43;87.99
13952;BME280;39535;52.192;9.886;2024-03-22T06:51:20;100634.44;;;11.48;85.52
13952;BME280;39535;52.192;9.886;2024-03-22T06:53:46;100637.03;;;11.48;85.87
13952;BME280;39535;52.192;9.886;2024-03-22T06:56:13;100651.34;;;11.28;85.73
13952;BME280;39535;52.192;9.886;2024-03-22T06:58:39;100636.94;;;11.52;86.07
13952;BME280;39535;52.192;9.886;2024-03-22T07:01:06;100645.50;;;11.59;85.59
13952;BME280;39535;52.192;9.886;2024-03-22T07:03:31;100670.81;;;11.59;84.82
13952;BME280;39535;52.192;9.886;2024-03-22T07:05:58;100683.94;;;11.56;84.25
13952;BME280;39535;52.192;9.886;2024-03-22T07:08:24;100681.84;;;11.73;84.24
13952;BME280;39535;52.192;9.886;2024-03-22T07:10:50;100700.41;;;11.61;83.14
13952;BME280;39535;52.192;9.886;2024-03-22T07:13:16;100716.09;;;11.61;82.92
13952;BME280;39535;52.192;9.886;2024-03-22T07:15:45;100726.31;;;11.73;83.05
13952;BME280;39535;52.192;9.886;2024-03-22T07:18:10;100723.94;;;11.61;83.93
13952;BME280;39535;52.192;9.886;2024-03-22T07:20:37;100727.22;;;11.70;83.08
13952;BME280;39535;52.192;9.886;2024-03-22T07:23:02;100710.34;;;11.87;84.09
13952;BME280;39535;52.192;9.886;2024-03-22T07:25:29;100683.09;;;11.99;86.06
13952;BME280;39535;52.192;9.886;2024-03-22T07:27:54;100682.13;;;12.04;83.98
13952;BME280;39535;52.192;9.886;2024-03-22T07:30:21;100715.31;;;12.02;82.77
13952;BME280;39535;52.192;9.886;2024-03-22T07:32:48;100714.56;;;11.97;81.80
13952;BME280;39535;52.192;9.886;2024-03-22T07:35:14;100724.84;;;12.05;81.46
13952;BME280;39535;52.192;9.886;2024-03-22T07:37:40;100734.56;;;12.00;81.52
13952;BME280;39535;52.192;9.886;2024-03-22T07:40:07;100730.72;;;12.16;81.67
13952;BME280;39535;52.192;9.886;2024-03-22T07:42:32;100733.97;;;12.27;81.68
13952;BME280;39535;52.192;9.886;2024-03-22T07:44:58;100731.94;;;12.40;81.68
13952;BME280;39535;52.192;9.886;2024-03-22T07:47:24;100738.97;;;12.38;80.57
13952;BME280;39535;52.192;9.886;2024-03-22T07:49:52;100743.91;;;12.52;80.28
13952;BME280;39535;52.192;9.886;2024-03-22T07:52:17;100760.53;;;12.51;79.80
13952;BME280;39535;52.192;9.886;2024-03-22T07:54:43;100764.41;;;12.33;81.04
13952;BME280;39535;52.192;9.886;2024-03-22T07:57:09;100752.75;;;12.46;80.83
13952;BME280;39535;52.192;9.886;2024-03-22T07:59:36;100742.13;;;12.54;81.11
13952;BME280;39535;52.192;9.886;2024-03-22T08:02:01;100735.66;;;12.70;80.96
13952;BME280;39535;52.192;9.886;2024-03-22T08:04:28;100720.81;;;12.69;80.58
13952;BME280;39535;52.192;9.886;2024-03-22T08:06:55;100727.34;;;12.90;80.71
13952;BME280;39535;52.192;9.886;2024-03-22T08:09:22;100740.38;;;12.92;79.88
13952;BME280;39535;52.192;9.886;2024-03-22T08:11:47;100749.81;;;12.99;80.15
13952;BME280;39535;52.192;9.886;2024-03-22T08:14:14;100753.88;;;12.75;80.27
13952;BME280;39535;52.192;9.886;2024-03-22T08:16:39;100745.59;;;12.94;80.25
13952;BME280;39535;52.192;9.886;2024-03-22T08:19:05;100741.84;;;13.04;80.16
13952;BME280;39535;52.192;9.886;2024-03-22T08:21:31;100732.34;;;12.98;80.91
13952;BME280;39535;52.192;9.886;2024-03-22T08:23:58;100746.75;;;12.80;80.28
13952;BME280;39535;52.192;9.886;2024-03-22T08:26:24;100759.16;;;12.74;80.27
13952;BME280;39535;52.192;9.886;2024-03-22T08:28:50;100747.03;;;12.68;80.36
13952;BME280;39535;52.192;9.886;2024-03-22T08:31:15;100718.03;;;12.77;80.84
13952;BME280;39535;52.192;9.886;2024-03-22T08:33:42;100716.22;;;12.81;80.92
13952;BME280;39535;52.192;9.886;2024-03-22T08:36:08;100699.59;;;12.80;80.83
13952;BME280;39535;52.192;9.886;2024-03-22T08:38:34;100707.13;;;12.94;80.61
13952;BME280;39535;52.192;9.886;2024-03-22T08:41:01;100715.88;;;12.95;79.98
13952;BME280;39535;52.192;9.886;2024-03-22T08:43:28;100728.38;;;12.83;79.68
13952;BME280;39535;52.192;9.886;2024-03-22T08:45:54;100717.00;;;12.84;80.42
13952;BME280;39535;52.192;9.886;2024-03-22T08:48:20;100721.44;;;12.81;79.74
13952;BME280;39535;52.192;9.886;2024-03-22T08:50:46;100717.59;;;12.96;79.93
13952;BME280;39535;52.192;9.886;2024-03-22T08:53:12;100717.34;;;13.06;79.84
13952;BME280;39535;52.192;9.886;2024-03-22T08:55:37;100714.59;;;13.11;79.35
13952;BME280;39535;52.192;9.886;2024-03-22T08:58:05;100717.00;;;13.20;79.65
13952;BME280;39535;52.192;9.886;2024-03-22T09:00:30;100715.91;;;13.27;79.48
13952;BME280;39535;52.192;9.886;2024-03-22T09:02:57;100729.13;;;13.24;78.96
13952;BME280;39535;52.192;9.886;2024-03-22T09:05:22;100730.50;;;13.39;78.55
13952;BME280;39535;52.192;9.886;2024-03-22T09:07:49;100731.63;;;13.29;78.50
13952;BME280;39535;52.192;9.886;2024-03-22T09:10:15;100718.13;;;13.46;79.02
13952;BME280;39535;52.192;9.886;2024-03-22T09:12:41;100726.53;;;13.57;78.56
13952;BME280;39535;52.192;9.886;2024-03-22T09:15:09;100719.44;;;13.61;78.37
13952;BME280;39535;52.192;9.886;2024-03-22T09:17:35;100721.88;;;13.68;78.30
13952;BME280;39535;52.192;9.886;2024-03-22T09:20:01;100726.31;;;13.66;77.88
13952;BME280;39535;52.192;9.886;2024-03-22T09:22:29;100725.34;;;13.69;77.58
13952;BME280;39535;52.192;9.886;2024-03-22T09:24:55;100743.97;;;13.60;77.93
13952;BME280;39535;52.192;9.886;2024-03-22T09:27:21;100744.78;;;13.62;77.60
13952;BME280;39535;52.192;9.886;2024-03-22T09:29:48;100746.03;;;13.47;77.08
13952;BME280;39535;52.192;9.886;2024-03-22T09:32:16;100735.44;;;13.51;77.82
13952;BME280;39535;52.192;9.886;2024-03-22T09:34:41;100729.25;;;13.54;77.64
13952;BME280;39535;52.192;9.886;2024-03-22T09:37:08;100741.72;;;13.46;77.43
13952;BME280;39535;52.192;9.886;2024-03-22T09:39:33;100744.59;;;13.35;76.19
13952;BME280;39535;52.192;9.886;2024-03-22T09:42:00;100765.66;;;13.32;76.90
13952;BME280;39535;52.192;9.886;2024-03-22T09:44:32;100745.56;;;13.31;77.63
13952;BME280;39535;52.192;9.886;2024-03-22T09:46:58;100739.47;;;13.29;76.71
13952;BME280;39535;52.192;9.886;2024-03-22T09:49:25;100728.84;;;13.37;77.70
13952;BME280;39535;52.192;9.886;2024-03-22T09:51:52;100736.06;;;13.25;76.76
13952;BME280;39535;52.192;9.886;2024-03-22T09:54:18;100734.41;;;13.23;76.20
13952;BME280;39535;52.192;9.886;2024-03-22T09:56:46;100740.03;;;13.06;76.96
13952;BME280;39535;52.192;9.886;2024-03-22T09:59:13;100749.16;;;13.27;76.78
13952;BME280;39535;52.192;9.886;2024-03-22T10:01:39;100733.38;;;13.28;77.71
13952;BME280;39535;52.192;9.886;2024-03-22T10:04:05;100734.31;;;13.26;75.86
13952;BME280;39535;52.192;9.886;2024-03-22T10:06:33;100763.44;;;13.14;75.45
13952;BME280;39535;52.192;9.886;2024-03-22T10:08:58;100769.03;;;13.36;75.36
13952;BME280;39535;52.192;9.886;2024-03-22T10:11:26;100762.53;;;13.52;76.34
13952;BME280;39535;52.192;9.886;2024-03-22T10:13:51;100757.47;;;13.44;75.58
13952;BME280;39535;52.192;9.886;2024-03-22T10:16:17;100785.81;;;13.28;75.68
13952;BME280;39535;52.192;9.886;2024-03-22T10:18:43;100797.53;;;13.14;73.87
13952;BME280;39535;52.192;9.886;2024-03-22T10:21:10;100809.13;;;13.41;74.85
13952;BME280;39535;52.192;9.886;2024-03-22T10:23:36;100798.28;;;13.56;75.40
13952;BME280;39535;52.192;9.886;2024-03-22T10:26:03;100829.94;;;13.48;72.44
13952;BME280;39535;52.192;9.886;2024-03-22T10:28:29;100836.72;;;13.56;73.20
13952;BME280;39535;52.192;9.886;2024-03-22T10:30:55;100867.38;;;13.54;70.75
13952;BME280;39535;52.192;9.886;2024-03-22T10:33:21;100900.66;;;13.51;70.39
13952;BME280;39535;52.192;9.886;2024-03-22T10:35:51;100932.22;;;13.48;69.53
13952;BME280;39535;52.192;9.886;2024-03-22T10:38:18;100958.97;;;13.63;68.46
13952;BME280;39535;52.192;9.886;2024-03-22T10:40:47;100971.75;;;13.78;69.09
13952;BME280;39535;52.192;9.886;2024-03-22T10:43:12;101011.69;;;13.52;65.38
13952;BME280;39535;52.192;9.886;2024-03-22T10:45:40;101042.81;;;13.67;66.49
13952;BME280;39535;52.192;9.886;2024-03-22T10:48:09;101084.03;;;13.64;64.62
13952;BME280;39535;52.192;9.886;2024-03-22T10:50:38;101063.50;;;13.81;67.54
13952;BME280;39535;52.192;9.886;2024-03-22T10:53:06;101054.06;;;13.74;66.80
13952;BME280;39535;52.192;9.886;2024-03-22T10:55:36;101045.41;;;13.69;69.36
13952;BME280;39535;52.192;9.886;2024-03-22T10:58:04;100952.63;;;13.73;73.37
13952;BME280;39535;52.192;9.886;2024-03-22T11:00:32;100854.91;;;13.63;76.32
13952;BME280;39535;52.192;9.886;2024-03-22T11:02:58;100747.19;;;12.99;79.68
13952;BME280;39535;52.192;9.886;2024-03-22T11:05:25;100661.53;;;12.67;82.68
13952;BME280;39535;52.192;9.886;2024-03-22T11:07:59;100613.91;;;12.51;82.84
13952;BME280;39535;52.192;9.886;2024-03-22T11:10:28;100585.34;;;12.40;81.89
13952;BME280;39535;52.192;9.886;2024-03-22T11:12:53;100509.63;;;12.67;84.88
13952;BME280;39535;52.192;9.886;2024-03-22T11:15:21;100383.41;;;12.84;89.99
13952;BME280;39535;52.192;9.886;2024-03-22T11:17:47;100294.97;;;12.92;94.28
13952;BME280;39535;52.192;9.886;2024-03-22T11:20:14;100239.63;;;13.03;95.25
13952;BME280;39535;52.192;9.886;2024-03-22T11:22:40;100214.03;;;13.11;95.73
13952;BME280;39535;52.192;9.886;2024-03-22T11:25:07;100179.25;;;13.06;98.18
13952;BME280;39535;52.192;9.886;2024-03-22T11:27:32;100136.63;;;13.01;100.00
13952;BME280;39535;52.192;9.886;2024-03-22T11:29:59;100080.94;;;12.94;100.00
13952;BME280;39535;52.192;9.886;2024-03-22T11:32:25;100052.22;;;12.93;100.00
13952;BME280;39535;52.192;9.886;2024-03-22T11:34:53;100046.97;;;12.93;100.00
13952;BME280;39535;52.192;9.886;2024-03-22T11:37:19;100083.91;;;12.85;98.06
13952;BME280;39535;52.192;9.886;2024-03-22T11:39:45;100141.28;;;12.93;98.14
13952;BME280;39535;52.192;9.886;2024-03-22T11:42:11;100119.34;;;12.95;100.00
13952;BME280;39535;52.192;9.886;2024-03-22T11:44:39;100101.78;;;12.99;100.00
13952;BME280;39535;52.192;9.886;2024-03-22T11:47:05;100090.94;;;13.08;100.00
13952;BME280;39535;52.192;9.886;2024-03-22T11:49:33;100106.75;;;13.06;98.57
13952;BME280;39535;52.192;9.886;2024-03-22T11:52:00;100116.75;;;13.20;99.29
13952;BME280;39535;52.192;9.886;2024-03-22T11:54:26;100152.78;;;13.14;96.03
13952;BME280;39535;52.192;9.886;2024-03-22T11:56:55;100170.66;;;13.27;96.59
13952;BME280;39535;52.192;9.886;2024-03-22T11:59:21;100303.28;;;13.06;84.35
13952;BME280;39535;52.192;9.886;2024-03-22T12:01:47;100405.19;;;13.16;82.44
13952;BME280;39535;52.192;9.886;2024-03-22T12:04:13;100472.81;;;13.04;79.34
13952;BME280;39535;52.192;9.886;2024-03-22T12:06:42;100558.28;;;13.08;77.71
13952;BME280;39535;52.192;9.886;2024-03-22T12:09:08;100611.91;;;13.29;76.78
13952;BME280;39535;52.192;9.886;2024-03-22T12:11:36;100640.72;;;13.31;76.60
13952;BME280;39535;52.192;9.886;2024-03-22T12:14:02;100694.91;;;13.29;75.60
13952;BME280;39535;52.192;9.886;2024-03-22T12:16:29;100715.50;;;13.46;75.62
13952;BME280;39535;52.192;9.886;2024-03-22T12:18:54;100749.69;;;13.41;74.17
13952;BME280;39535;52.192;9.886;2024-03-22T12:21:21;100768.28;;;13.32;74.33
13952;BME280;39535;52.192;9.886;2024-03-22T12:23:47;100756.84;;;13.35;74.46
13952;BME280;39535;52.192;9.886;2024-03-22T12:26:14;100751.97;;;13.54;75.18
13952;BME280;39535;52.192;9.886;2024-03-22T12:28:39;100763.56;;;13.46;74.14
13952;BME280;39535;52.192;9.886;2024-03-22T12:31:07;100765.81;;;13.60;73.94
13952;BME280;39535;52.192;9.886;2024-03-22T12:33:34;100754.31;;;13.66;74.74
13952;BME280;39535;52.192;9.886;2024-03-22T12:36:00;100753.56;;;13.61;73.73
13952;BME280;39535;52.192;9.886;2024-03-22T12:38:25;100777.94;;;13.64;73.42
13952;BME280;39535;52.192;9.886;2024-03-22T12:40:53;100778.19;;;13.55;73.81
13952;BME280;39535;52.192;9.886;2024-03-22T12:43:19;100770.56;;;13.46;74.08
13952;BME280;39535;52.192;9.886;2024-03-22T12:45:45;100752.31;;;13.41;75.06